Opal Express — V7KB8 — position and weather

sailwx.info

Track history (hours):
 
Tides and Currents Weather Stations Pressure Air Temp Water Temp Dewpoint Dewpoint Depression Visibility Wind Speed Wind Dir Waves Ship Positions

Opal Express

Last reported at 2017-Jul-25 04:28 UTC. Time now 2017-Jul-25 04:45 UTC.
Position N 09°26' W 079°58'.

Length 179 m; draft 7.8 m.

Type: Tanker. MMSI: 538002500.

Date/timePositionNaut miles runAvg speedWind from/ knotsBaromVisibWave heightAir tempDewpointWater temp
2017-Jul-25 04:28N 09°26' W 079°58'0 0.0
2017-Jul-25 03:52N 09°26' W 079°58'0 0.1
2017-Jul-25 03:25N 09°26' W 079°58'0 0.0
2017-Jul-25 02:52N 09°26' W 079°58'0 0.1
2017-Jul-25 02:28N 09°26' W 079°58'0 0.0
2017-Jul-25 01:55N 09°26' W 079°58'0 0.0
2017-Jul-25 01:28N 09°26' W 079°58'0 0.0
2017-Jul-25 00:58N 09°26' W 079°58'0 0.0
2017-Jul-25 00:25N 09°26' W 079°58'0 0.0
2017-Jul-24 23:58N 09°26' W 079°58'0 0.0
2017-Jul-24 23:28N 09°26' W 079°58'0 0.0
2017-Jul-24 22:58N 09°26' W 079°58'0 0.0
2017-Jul-24 22:29N 09°26' W 079°58'1 1.3
2017-Jul-24 22:00N 09°27' W 079°58'2 3.7
2017-Jul-24 21:30N 09°28' W 079°57'3 6.5
2017-Jul-24 21:00N 09°31' W 079°54'  
2017-Jul-19 23:48N 29°21' W 094°43'413.2
2017-Jul-19 23:30N 29°21' W 094°47'912.3
2017-Jul-19 22:46N 29°30' W 094°52'311.3
2017-Jul-19 22:30N 29°32' W 094°54'510.8
2017-Jul-19 22:00N 29°36' W 094°57'510.1
2017-Jul-19 21:30N 29°41' W 094°59'4 7.2
2017-Jul-19 21:00N 29°44' W 095°02'4 7.1
2017-Jul-19 20:30N 29°46' W 095°05'  
2017-Jul-17 16:21N 29°45' W 095°06'0 1.1
2017-Jul-17 16:00N 29°45' W 095°06'2 3.6
2017-Jul-17 15:30N 29°45' W 095°04'13 8.9
2017-Jul-17 14:05N 29°34' W 094°55'112.2
2017-Jul-17 14:00N 29°34' W 094°55'612.5
2017-Jul-17 13:30N 29°28' W 094°51'612.6
2017-Jul-17 13:00N 29°22' W 094°48'  
Track history (hours):
 
Tides and Currents Weather Stations Pressure Air Temp Water Temp Dewpoint Dewpoint Depression Visibility Wind Speed Wind Dir Waves Ship Positions

Opal Express

Last reported at 2017-Jul-25 04:28 UTC. Time now 2017-Jul-25 04:45 UTC.
Position N 09°26' W 079°58'.

Length 179 m; draft 7.8 m.

Type: Tanker. MMSI: 538002500.

Date/timePositionNaut miles runAvg speedWind from/ knotsBaromVisibWave heightAir tempDewpointWater temp
2017-Jul-25 04:28N 09°26' W 079°58'0 0.0
2017-Jul-25 03:52N 09°26' W 079°58'0 0.1
2017-Jul-25 03:25N 09°26' W 079°58'0 0.0
2017-Jul-25 02:52N 09°26' W 079°58'0 0.1
2017-Jul-25 02:28N 09°26' W 079°58'0 0.0
2017-Jul-25 01:55N 09°26' W 079°58'0 0.0
2017-Jul-25 01:28N 09°26' W 079°58'0 0.0
2017-Jul-25 00:58N 09°26' W 079°58'0 0.0
2017-Jul-25 00:25N 09°26' W 079°58'0 0.0
2017-Jul-24 23:58N 09°26' W 079°58'0 0.0
2017-Jul-24 23:28N 09°26' W 079°58'0 0.0
2017-Jul-24 22:58N 09°26' W 079°58'0 0.0
2017-Jul-24 22:29N 09°26' W 079°58'1 1.3
2017-Jul-24 22:00N 09°27' W 079°58'2 3.7
2017-Jul-24 21:30N 09°28' W 079°57'3 6.5
2017-Jul-24 21:00N 09°31' W 079°54'  
2017-Jul-19 23:48N 29°21' W 094°43'413.2
2017-Jul-19 23:30N 29°21' W 094°47'912.3
2017-Jul-19 22:46N 29°30' W 094°52'311.3
2017-Jul-19 22:30N 29°32' W 094°54'510.8
2017-Jul-19 22:00N 29°36' W 094°57'510.1
2017-Jul-19 21:30N 29°41' W 094°59'4 7.2
2017-Jul-19 21:00N 29°44' W 095°02'4 7.1
2017-Jul-19 20:30N 29°46' W 095°05'  
2017-Jul-17 16:21N 29°45' W 095°06'0 1.1
2017-Jul-17 16:00N 29°45' W 095°06'2 3.6
2017-Jul-17 15:30N 29°45' W 095°04'13 8.9
2017-Jul-17 14:05N 29°34' W 094°55'112.2
2017-Jul-17 14:00N 29°34' W 094°55'612.5
2017-Jul-17 13:30N 29°28' W 094°51'612.6
2017-Jul-17 13:00N 29°22' W 094°48'  

Dump ship's entire track history